Time;durP1;ratioP1;P1;durP2;ratioP2;P2;SDS_P1;SDS_P2;PMS_P1;PMS_P2;Temp;Humidity;BMP_temperature;BMP_pressure;BME280_temperature;BME280_humidity;BME280_pressure;Samples;Min_cycle;Max_cycle;Signal;HPM_P1;HPM_P2
2023/01/29 00:00:14;;;;;;;72.10;37.10;;;;;;;-1.32;77.79;97908.95;108795;1251;95629;-75
2023/01/29 00:03:02;;;;;;;65.10;33.70;;;;;;;-1.29;77.86;97909.95;108837;1251;96107;-76
2023/01/29 00:05:30;;;;;;;65.80;34.80;;;;;;;-1.26;77.80;97906.55;108565;1251;103470;-75
2023/01/29 00:07:58;;;;;;;68.30;37.60;;;;;;;-1.23;77.82;97903.67;108786;1252;101438;-75
2023/01/29 00:10:26;;;;;;;66.40;35.90;;;;;;;-1.21;77.84;97905.27;108777;1252;99841;-75
2023/01/29 00:12:55;;;;;;;73.00;37.00;;;;;;;-1.20;77.68;97902.45;108817;1251;95936;-75
2023/01/29 00:15:23;;;;;;;70.80;35.70;;;;;;;-1.19;77.71;97893.06;108879;1251;95984;-75
2023/01/29 00:17:51;;;;;;;63.90;34.80;;;;;;;-1.18;77.80;97887.33;108881;1251;103098;-75
2023/01/29 00:20:19;;;;;;;65.00;34.20;;;;;;;-1.18;77.73;97885.33;108595;1253;101387;-75
2023/01/29 00:22:48;;;;;;;64.30;33.20;;;;;;;-1.16;77.74;97887.87;108820;1256;108515;-75
2023/01/29 00:25:16;;;;;;;58.70;32.40;;;;;;;-1.16;77.60;97890.11;108837;1254;95580;-75
2023/01/29 00:27:44;;;;;;;58.70;31.10;;;;;;;-1.15;77.65;97898.35;108898;1251;96089;-75
2023/01/29 00:30:17;;;;;;;63.10;33.00;;;;;;;-1.17;77.67;97903.31;108845;1251;103517;-75
2023/01/29 00:32:46;;;;;;;55.40;31.70;;;;;;;-1.19;77.57;97904.91;108862;1251;101295;-75
2023/01/29 00:35:14;;;;;;;58.70;31.20;;;;;;;-1.18;77.73;97910.46;108609;1253;99886;-75
2023/01/29 00:37:42;;;;;;;61.50;29.80;;;;;;;-1.17;77.64;97906.49;108796;1251;95830;-76
2023/01/29 00:40:10;;;;;;;53.00;28.30;;;;;;;-1.16;77.68;97908.38;108840;1251;96331;-75
2023/01/29 00:45:24;;;;;;;53.30;28.50;;;;;;;-1.14;77.68;97914.75;108865;1251;101178;-75
2023/01/29 00:47:53;;;;;;;60.30;30.30;;;;;;;-1.13;77.57;97918.92;108631;1251;230008;-75
2023/01/29 00:50:21;;;;;;;51.10;28.40;;;;;;;-1.12;77.72;97920.20;108770;1251;95540;-75
2023/01/29 00:52:50;;;;;;;54.00;28.40;;;;;;;-1.10;77.73;97917.04;108814;1251;96012;-75
2023/01/29 00:55:18;;;;;;;51.00;27.00;;;;;;;-1.12;77.68;97916.31;108596;1254;103468;-76
2023/01/29 00:57:47;;;;;;;52.40;27.10;;;;;;;-1.11;77.77;97917.83;108806;1251;101065;-75
2023/01/29 01:00:17;;;;;;;55.60;28.70;;;;;;;-1.08;77.64;97920.80;108827;1254;97716;-75
2023/01/29 01:05:32;;;;;;;50.00;26.50;;;;;;;-1.08;77.73;97916.84;108810;1251;95974;-75
2023/01/29 01:08:00;;;;;;;48.90;25.80;;;;;;;-1.13;77.76;97915.90;108861;1251;103775;-75
2023/01/29 01:10:31;;;;;;;53.70;25.20;;;;;;;-1.14;77.70;97909.29;108843;1251;100524;-74
2023/01/29 01:13:01;;;;;;;52.30;26.20;;;;;;;-1.19;77.76;97909.31;108727;1254;99952;-75
2023/01/29 01:15:38;;;;;;;48.90;25.00;;;;;;;-1.20;77.73;97911.14;108855;1251;95834;-75
2023/01/29 01:18:07;;;;;;;49.20;26.20;;;;;;;-1.20;77.80;97910.23;108507;1251;96048;-74
2023/01/29 01:20:36;;;;;;;46.80;26.20;;;;;;;-1.22;77.69;97909.88;108907;1251;103597;-75
2023/01/29 01:23:04;;;;;;;49.60;25.90;;;;;;;-1.28;77.72;97910.27;108848;1251;101169;-75
2023/01/29 01:25:33;;;;;;;52.40;27.00;;;;;;;-1.31;77.89;97915.98;108774;1251;99937;-75
2023/01/29 01:28:01;;;;;;;51.00;26.40;;;;;;;-1.32;77.94;97919.77;108581;1253;95765;-76
2023/01/29 01:30:29;;;;;;;50.00;27.90;;;;;;;-1.35;78.05;97918.27;108802;1251;96613;-76
2023/01/29 01:32:57;;;;;;;50.40;27.00;;;;;;;-1.39;78.23;97921.40;108491;1257;102503;-75
2023/01/29 01:35:25;;;;;;;50.20;26.80;;;;;;;-1.41;78.20;97929.48;108876;1251;100858;-74
2023/01/29 01:37:53;;;;;;;50.00;26.90;;;;;;;-1.46;78.27;97930.94;108789;1251;99022;-75
2023/01/29 01:40:23;;;;;;;52.60;26.20;;;;;;;-1.47;78.27;97928.04;108791;1252;95812;-76
2023/01/29 01:42:54;;;;;;;49.00;25.60;;;;;;;-1.44;78.36;97927.98;108774;1251;95990;-75
2023/01/29 01:45:27;;;;;;;50.70;28.00;;;;;;;-1.40;78.43;97927.49;108788;1253;103509;-74
2023/01/29 01:48:19;;;;;;;51.10;26.90;;;;;;;-1.37;78.39;97924.61;108726;1254;101680;-76
2023/01/29 01:50:52;;;;;;;49.80;26.30;;;;;;;-1.38;78.31;97919.91;108854;1251;99863;-75
2023/01/29 01:53:37;;;;;;;47.00;26.00;;;;;;;-1.40;78.28;97921.81;108795;1251;95616;-75
2023/01/29 01:56:14;;;;;;;49.20;26.10;;;;;;;-1.42;78.30;97921.77;108817;1251;96408;-75
2023/01/29 01:58:51;;;;;;;52.50;27.40;;;;;;;-1.43;78.34;97920.13;108862;1251;103776;-75
2023/01/29 02:01:26;;;;;;;45.70;26.30;;;;;;;-1.41;78.47;97919.60;108855;1251;101466;-75
2023/01/29 02:09:51;;;;;;;60.20;29.70;;;;;;;-1.29;78.41;97920.23;108865;1251;95923;-74
2023/01/29 02:12:21;;;;;;;45.60;26.70;;;;;;;-1.27;78.28;97921.97;108857;1251;103076;-75
2023/01/29 02:14:51;;;;;;;51.20;28.60;;;;;;;-1.26;78.31;97924.16;108832;1251;101618;-75
2023/01/29 02:17:20;;;;;;;55.50;28.80;;;;;;;-1.23;78.35;97929.81;108849;1251;100091;-75
2023/01/29 02:20:03;;;;;;;54.20;28.30;;;;;;;-1.21;78.33;97927.83;108791;1251;95922;-75
2023/01/29 02:22:42;;;;;;;45.30;25.60;;;;;;;-1.19;78.20;97923.92;108816;1251;95990;-74
2023/01/29 02:25:28;;;;;;;47.70;25.70;;;;;;;-1.19;78.19;97915.33;108856;1251;103411;-75
2023/01/29 02:28:16;;;;;;;53.60;25.80;;;;;;;-1.17;78.08;97913.05;108884;1251;110118;-75
2023/01/29 02:30:57;;;;;;;71.90;31.50;;;;;;;-1.16;78.21;97918.74;108614;1251;99645;-75
2023/01/29 02:33:34;;;;;;;79.70;33.20;;;;;;;-1.16;78.12;97915.02;108783;1251;95867;-74
2023/01/29 02:36:10;;;;;;;82.30;33.00;;;;;;;-1.15;78.04;97906.66;108848;1251;96014;-74
2023/01/29 02:39:34;;;;;;;73.40;32.50;;;;;;;-1.15;78.16;97894.48;108794;1254;112091;-75
2023/01/29 02:42:23;;;;;;;73.00;33.00;;;;;;;-1.20;78.03;97890.99;107925;1265;101459;-75
2023/01/29 02:45:02;;;;;;;53.50;26.60;;;;;;;-1.22;77.99;97885.38;107906;1265;99924;-74
2023/01/29 02:47:40;;;;;;;46.00;23.40;;;;;;;-1.27;78.03;97876.91;107910;1265;95834;-74
2023/01/29 02:50:29;;;;;;;44.60;23.60;;;;;;;-1.28;78.06;97872.27;107965;1266;97147;-75
2023/01/29 02:53:03;;;;;;;41.40;22.70;;;;;;;-1.24;78.10;97867.20;107925;1265;102811;-75
2023/01/29 02:55:41;;;;;;;41.60;22.20;;;;;;;-1.20;77.96;97867.90;107809;1265;100153;-75
2023/01/29 02:58:33;;;;;;;49.40;24.30;;;;;;;-1.17;77.96;97866.08;107666;1266;100184;-75
2023/01/29 03:01:07;;;;;;;44.30;23.00;;;;;;;-1.18;77.87;97859.75;107278;1273;95687;-75
2023/01/29 03:03:43;;;;;;;40.70;22.60;;;;;;;-1.25;77.80;97863.02;107322;1272;96218;-75
2023/01/29 03:06:35;;;;;;;49.00;25.10;;;;;;;-1.28;77.91;97860.98;107359;1273;102833;-75
2023/01/29 03:09:30;;;;;;;41.40;23.80;;;;;;;-1.26;77.98;97861.17;107276;1273;101413;-76
2023/01/29 03:12:17;;;;;;;38.60;23.30;;;;;;;-1.24;78.00;97861.90;107296;1272;99847;-76
2023/01/29 03:18:02;;;;;;;48.50;26.80;;;;;;;-1.31;78.02;97868.61;107335;1273;96102;-74
2023/01/29 03:20:35;;;;;;;48.30;28.40;;;;;;;-1.33;78.10;97864.07;108167;1260;103697;-75
2023/01/29 03:23:14;;;;;;;48.30;27.10;;;;;;;-1.31;78.11;97869.36;108221;1259;100912;-75
2023/01/29 03:34:17;;;;;;;45.10;24.00;;;;;;;-1.47;78.18;97885.52;108208;1259;103933;-75
2023/01/29 03:37:08;;;;;;;43.90;24.50;;;;;;;-1.44;78.18;97883.48;108178;1259;101540;-75
2023/01/29 03:39:36;;;;;;;41.90;23.30;;;;;;;-1.40;78.22;97881.41;108798;1251;100021;-75
2023/01/29 03:42:13;;;;;;;42.40;23.60;;;;;;;-1.37;78.10;97881.13;108806;1251;95558;-75
2023/01/29 03:44:51;;;;;;;44.40;23.80;;;;;;;-1.35;78.03;97882.18;108937;1251;96034;-76
2023/01/29 03:47:22;;;;;;;44.00;24.70;;;;;;;-1.33;78.07;97884.00;108881;1251;103490;-75
2023/01/29 03:50:08;;;;;;;43.50;23.90;;;;;;;-1.31;78.03;97881.38;108823;1251;101775;-75
2023/01/29 03:52:49;;;;;;;36.10;20.80;;;;;;;-1.30;77.88;97881.98;108726;1253;99931;-75
2023/01/29 03:55:30;;;;;;;39.10;20.40;;;;;;;-1.29;77.83;97878.32;108818;1251;95841;-75
2023/01/29 03:58:12;;;;;;;36.20;19.90;;;;;;;-1.30;77.66;97877.92;108591;1251;96037;-75
2023/01/29 04:00:48;;;;;;;32.40;18.20;;;;;;;-1.39;77.50;97877.27;108900;1251;102148;-75
2023/01/29 04:03:53;;;;;;;30.90;18.60;;;;;;;-1.46;77.59;97879.20;108901;1250;100350;-74
2023/01/29 04:06:26;;;;;;;29.70;14.10;;;;;;;-1.46;77.53;97881.02;108306;1257;100035;-75
2023/01/29 04:09:03;;;;;;;27.10;14.40;;;;;;;-1.56;77.15;97881.66;108161;1257;96104;-74
2023/01/29 04:11:33;;;;;;;22.60;13.30;;;;;;;-1.62;77.23;97885.33;108334;1257;96481;-75
2023/01/29 04:14:02;;;;;;;21.80;12.50;;;;;;;-1.61;77.27;97885.45;108316;1256;103578;-75
2023/01/29 04:16:40;;;;;;;24.90;13.80;;;;;;;-1.64;77.14;97884.23;108186;1257;101423;-75
2023/01/29 04:19:09;;;;;;;26.60;14.10;;;;;;;-1.63;77.22;97881.39;108339;1256;99177;-75
2023/01/29 04:21:37;;;;;;;20.10;12.80;;;;;;;-1.65;77.06;97882.93;108317;1257;95653;-74
2023/01/29 04:24:07;;;;;;;18.80;11.30;;;;;;;-1.69;77.00;97882.55;108309;1257;96161;-75
2023/01/29 04:27:06;;;;;;;18.00;11.10;;;;;;;-1.76;76.86;97881.51;108330;1257;112175;-75
2023/01/29 04:29:52;;;;;;;17.90;10.40;;;;;;;-1.77;76.94;97876.70;108371;1256;101336;-75
2023/01/29 04:32:28;;;;;;;19.60;11.80;;;;;;;-1.74;76.91;97868.63;108298;1257;100125;-75
2023/01/29 04:35:10;;;;;;;18.90;11.60;;;;;;;-1.66;76.96;97870.85;108285;1257;95722;-75
2023/01/29 04:38:02;;;;;;;22.20;11.10;;;;;;;-1.64;76.87;97866.05;108354;1257;96533;-75
2023/01/29 04:40:43;;;;;;;15.80;10.90;;;;;;;-1.67;76.71;97862.98;108337;1257;103594;-75
2023/01/29 04:43:44;;;;;;;16.40;10.70;;;;;;;-1.71;76.73;97861.73;108523;1252;101394;-75
2023/01/29 04:46:19;;;;;;;18.60;10.90;;;;;;;-1.69;76.78;97859.95;108589;1251;100111;-75
2023/01/29 04:49:08;;;;;;;17.60;10.40;;;;;;;-1.66;76.80;97866.89;108854;1251;95822;-75
2023/01/29 04:52:01;;;;;;;20.40;11.90;;;;;;;-1.61;76.74;97874.50;108871;1251;96095;-75
2023/01/29 04:54:48;;;;;;;18.70;11.90;;;;;;;-1.58;76.62;97880.27;108568;1254;103929;-75
2023/01/29 04:57:45;;;;;;;17.40;11.00;;;;;;;-1.55;76.70;97873.61;108866;1251;101414;-74
2023/01/29 05:00:33;;;;;;;18.00;11.20;;;;;;;-1.51;76.59;97873.48;108809;1251;100147;-74
2023/01/29 05:03:02;;;;;;;22.60;12.70;;;;;;;-1.48;76.61;97876.59;108835;1251;95578;-75
2023/01/29 05:05:31;;;;;;;21.00;13.50;;;;;;;-1.51;76.53;97869.73;108886;1251;96091;-75
2023/01/29 05:07:59;;;;;;;24.80;13.60;;;;;;;-1.51;76.53;97867.27;108844;1251;103677;-74
2023/01/29 05:10:28;;;;;;;21.50;13.00;;;;;;;-1.48;76.63;97865.80;108327;1258;100917;-74
2023/01/29 05:13:08;;;;;;;19.60;11.90;;;;;;;-1.45;76.71;97856.41;108819;1251;99790;-75
2023/01/29 05:15:42;;;;;;;20.10;12.50;;;;;;;-1.42;76.53;97848.05;108843;1251;95591;-75
2023/01/29 05:18:10;;;;;;;19.80;11.80;;;;;;;-1.42;76.24;97838.66;108883;1251;96076;-75
2023/01/29 05:20:41;;;;;;;23.20;13.00;;;;;;;-1.44;76.01;97836.31;108842;1250;103186;-75
2023/01/29 05:23:20;;;;;;;23.50;13.40;;;;;;;-1.46;76.11;97840.72;108887;1251;100310;-74
2023/01/29 05:25:50;;;;;;;20.30;12.80;;;;;;;-1.45;76.01;97833.45;108885;1250;99943;-74
2023/01/29 05:28:19;;;;;;;20.70;13.00;;;;;;;-1.43;76.09;97828.13;108614;1251;95694;-74
2023/01/29 05:30:49;;;;;;;20.10;12.60;;;;;;;-1.41;75.97;97822.02;108672;1251;96032;-76
2023/01/29 05:33:26;;;;;;;24.50;13.60;;;;;;;-1.41;75.96;97811.38;108875;1251;103762;-74
2023/01/29 05:35:55;;;;;;;20.00;12.00;;;;;;;-1.42;75.94;97814.27;108574;1251;101581;-75
2023/01/29 05:38:23;;;;;;;17.40;11.00;;;;;;;-1.43;75.71;97814.35;108851;1251;98606;-76
2023/01/29 05:40:51;;;;;;;17.30;10.80;;;;;;;-1.44;75.34;97814.31;108809;1251;95843;-75
2023/01/29 05:43:24;;;;;;;16.90;10.70;;;;;;;-1.48;75.09;97816.03;108833;1251;96059;-75
2023/01/29 05:45:58;;;;;;;19.60;12.90;;;;;;;-1.49;74.97;97818.56;108864;1250;103823;-75
2023/01/29 05:48:27;;;;;;;25.80;15.80;;;;;;;-1.52;74.98;97816.85;108861;1251;101007;-75
2023/01/29 05:51:04;;;;;;;27.70;16.70;;;;;;;-1.54;75.19;97815.95;108809;1251;99824;-75
2023/01/29 05:53:32;;;;;;;26.50;17.70;;;;;;;-1.59;74.93;97817.67;108774;1252;95557;-75
2023/01/29 05:56:02;;;;;;;25.20;17.30;;;;;;;-1.72;74.85;97819.59;108880;1251;95607;-75
2023/01/29 05:58:34;;;;;;;29.20;19.90;;;;;;;-1.75;74.97;97820.05;108563;1251;103744;-75
2023/01/29 06:01:18;;;;;;;26.30;17.50;;;;;;;-1.74;75.13;97818.77;108554;1251;101102;-75
2023/01/29 06:03:46;;;;;;;26.20;16.90;;;;;;;-1.72;75.13;97827.03;108860;1251;99825;-75
2023/01/29 06:06:14;;;;;;;23.30;16.30;;;;;;;-1.68;75.17;97832.02;108386;1251;96488;-74
2023/01/29 06:08:43;;;;;;;25.20;17.60;;;;;;;-1.66;75.06;97835.21;108566;1251;96502;-74
2023/01/29 06:11:13;;;;;;;25.70;17.50;;;;;;;-1.67;75.02;97839.48;108880;1250;103316;-75
2023/01/29 06:13:42;;;;;;;23.20;15.50;;;;;;;-1.69;74.77;97847.92;108887;1251;101282;-75
2023/01/29 06:16:12;;;;;;;24.30;15.40;;;;;;;-1.70;74.68;97852.32;108840;1251;99490;-75
2023/01/29 06:18:41;;;;;;;27.30;18.10;;;;;;;-1.69;74.71;97852.74;108877;1251;95591;-75
2023/01/29 06:21:12;;;;;;;26.40;17.30;;;;;;;-1.71;74.54;97858.51;108649;1251;96209;-75
2023/01/29 06:23:40;;;;;;;28.10;17.40;;;;;;;-1.82;74.32;97870.14;108879;1251;103114;-74
2023/01/29 06:26:12;;;;;;;25.50;17.10;;;;;;;-1.93;74.41;97875.43;108717;1251;101885;-75
2023/01/29 06:28:41;;;;;;;24.30;15.00;;;;;;;-1.99;74.55;97875.74;108903;1251;99227;-74
2023/01/29 06:31:11;;;;;;;24.20;15.60;;;;;;;-2.12;74.34;97876.07;108833;1251;95611;-74
2023/01/29 06:33:39;;;;;;;24.70;16.10;;;;;;;-2.29;74.40;97878.48;108855;1251;95994;-74
2023/01/29 06:36:07;;;;;;;23.50;15.00;;;;;;;-2.33;74.60;97877.40;108907;1251;103353;-74
2023/01/29 06:38:35;;;;;;;25.70;16.70;;;;;;;-2.31;74.67;97879.76;108676;1251;101035;-74
2023/01/29 06:41:11;;;;;;;21.70;15.00;;;;;;;-2.31;74.85;97878.38;108862;1251;100367;-74
2023/01/29 06:43:39;;;;;;;23.70;14.90;;;;;;;-2.31;74.90;97883.30;108885;1251;95643;-75
2023/01/29 06:46:08;;;;;;;25.90;15.40;;;;;;;-2.32;74.80;97882.95;108912;1251;96084;-75
2023/01/29 06:48:36;;;;;;;22.90;14.50;;;;;;;-2.37;74.73;97886.73;108894;1251;103586;-75
2023/01/29 06:51:07;;;;;;;21.50;14.40;;;;;;;-2.42;74.40;97891.91;108909;1251;101482;-75
2023/01/29 06:53:37;;;;;;;19.50;13.30;;;;;;;-2.49;74.39;97886.27;108773;1252;107452;-75
2023/01/29 06:56:06;;;;;;;22.30;13.80;;;;;;;-2.53;74.45;97893.42;108619;1251;95982;-75
2023/01/29 06:58:38;;;;;;;21.30;14.40;;;;;;;-2.57;74.47;97898.82;108892;1251;95968;-75
2023/01/29 07:01:08;;;;;;;23.40;14.00;;;;;;;-2.58;74.53;97902.98;108888;1251;103697;-75
2023/01/29 07:03:36;;;;;;;21.90;13.60;;;;;;;-2.58;74.58;97901.22;108880;1251;101621;-74
2023/01/29 07:06:05;;;;;;;21.80;15.10;;;;;;;-2.59;74.68;97899.34;108810;1251;99955;-74
2023/01/29 07:08:38;;;;;;;27.20;17.00;;;;;;;-2.68;74.52;97902.52;108869;1251;95592;-75
2023/01/29 07:11:07;;;;;;;30.60;17.90;;;;;;;-2.76;74.54;97908.57;108866;1251;95871;-75
2023/01/29 07:13:35;;;;;;;24.60;15.30;;;;;;;-2.81;74.77;97915.67;108918;1250;102144;-74
2023/01/29 07:16:04;;;;;;;25.50;17.20;;;;;;;-2.83;74.85;97914.61;108893;1251;101568;-75
2023/01/29 07:18:33;;;;;;;34.50;15.30;;;;;;;-2.79;74.80;97915.40;108925;1251;99898;-75
2023/01/29 07:21:05;;;;;;;21.40;15.60;;;;;;;-2.84;74.47;97921.58;108835;1251;95609;-74
2023/01/29 07:23:35;;;;;;;25.40;16.00;;;;;;;-2.94;74.43;97925.14;108845;1251;96080;-74
2023/01/29 07:26:06;;;;;;;24.70;16.30;;;;;;;-3.02;74.34;97927.15;108811;1250;103268;-74
2023/01/29 07:28:38;;;;;;;17.00;12.70;;;;;;;-3.08;74.52;97930.57;108635;1254;100775;-74
2023/01/29 07:31:07;;;;;;;;;;;;;;;-3.09;74.55;97931.84;108846;1251;99632;-75
2023/01/29 07:33:35;;;;;;;20.60;14.00;;;;;;;-3.09;74.39;97929.80;108883;1251;95842;-74
2023/01/29 07:36:08;;;;;;;25.40;15.60;;;;;;;-3.07;74.29;97927.19;108866;1251;96409;-75
2023/01/29 07:38:37;;;;;;;20.20;13.40;;;;;;;-3.04;74.13;97923.45;108680;1251;103744;-75
2023/01/29 07:41:05;;;;;;;17.80;12.50;;;;;;;-3.11;73.95;97917.03;108924;1251;101196;-75
2023/01/29 07:43:33;;;;;;;19.50;12.10;;;;;;;-3.15;73.78;97913.34;108809;1251;101741;-75
2023/01/29 07:46:03;;;;;;;16.20;10.80;;;;;;;-3.24;73.55;97911.90;108870;1251;95513;-74
2023/01/29 07:48:31;;;;;;;17.20;11.70;;;;;;;-3.28;73.66;97916.77;108905;1251;96025;-75
2023/01/29 07:51:00;;;;;;;15.50;10.60;;;;;;;-3.32;73.70;97921.11;108859;1251;103452;-75
2023/01/29 07:53:29;;;;;;;17.70;11.60;;;;;;;-3.35;73.40;97925.15;108815;1251;101281;-75
2023/01/29 07:55:57;;;;;;;18.50;12.10;;;;;;;-3.30;73.39;97932.70;108883;1251;99549;-75
2023/01/29 07:58:25;;;;;;;17.00;11.00;;;;;;;-3.22;73.48;97929.14;108860;1251;95602;-74
2023/01/29 08:00:54;;;;;;;18.60;11.90;;;;;;;-3.16;73.47;97923.93;108942;1251;96061;-75
2023/01/29 08:03:22;;;;;;;16.30;10.50;;;;;;;-3.08;73.30;97926.37;108879;1250;102701;-75
2023/01/29 08:05:50;;;;;;;13.70;9.30;;;;;;;-3.01;73.08;97932.31;108872;1250;101323;-75
2023/01/29 08:08:18;;;;;;;14.50;9.90;;;;;;;-2.95;72.90;97935.04;108881;1251;99149;-75
2023/01/29 08:10:46;;;;;;;13.50;9.50;;;;;;;-2.91;72.68;97940.42;108830;1251;95564;-75
2023/01/29 08:13:14;;;;;;;13.00;8.80;;;;;;;-2.88;72.50;97949.34;108869;1251;95991;-75
2023/01/29 08:15:46;;;;;;;15.20;9.80;;;;;;;-2.89;72.18;97961.67;108607;1252;110878;-74
2023/01/29 08:18:15;;;;;;;11.50;6.70;;;;;;;-2.88;72.11;97966.53;108854;1251;100309;-75
2023/01/29 08:20:43;;;;;;;11.90;7.30;;;;;;;-2.85;72.00;97972.31;108539;1255;99036;-74
2023/01/29 08:23:16;;;;;;;10.10;6.20;;;;;;;-2.81;71.67;97982.29;108551;1255;95817;-75
2023/01/29 08:25:45;;;;;;;10.80;7.20;;;;;;;-2.81;71.28;97988.22;108272;1255;96505;-74
2023/01/29 08:28:13;;;;;;;10.50;6.80;;;;;;;-2.78;70.97;97990.81;108554;1256;103688;-74
2023/01/29 08:30:42;;;;;;;11.50;7.60;;;;;;;-2.74;70.67;97990.20;108337;1255;102696;-74
2023/01/29 08:33:11;;;;;;;12.70;7.00;;;;;;;-2.73;70.34;97992.40;108542;1256;99017;-75
2023/01/29 08:35:40;;;;;;;7.70;5.20;;;;;;;-2.70;70.31;98000.09;108511;1255;95585;-75
2023/01/29 08:38:10;;;;;;;8.80;5.00;;;;;;;-2.69;70.33;97999.86;108642;1256;96052;-75
2023/01/29 08:40:38;;;;;;;8.50;5.30;;;;;;;-2.67;70.29;98007.77;108254;1255;103720;-75
2023/01/29 08:43:08;;;;;;;7.80;5.50;;;;;;;-2.64;70.26;98016.55;108584;1255;101593;-74
2023/01/29 08:45:39;;;;;;;9.70;6.00;;;;;;;-2.60;70.28;98019.98;108516;1254;99680;-74
2023/01/29 08:48:09;;;;;;;10.30;6.60;;;;;;;-2.60;70.24;98026.27;108562;1256;95582;-75
2023/01/29 08:50:37;;;;;;;13.30;6.80;;;;;;;-2.58;70.43;98027.39;108523;1255;97033;-75
2023/01/29 08:53:08;;;;;;;10.90;6.70;;;;;;;-2.56;70.41;98030.39;108799;1252;103463;-75
2023/01/29 08:55:38;;;;;;;11.90;7.30;;;;;;;-2.52;70.40;98037.13;108923;1251;101368;-74
2023/01/29 08:58:08;;;;;;;10.00;6.50;;;;;;;-2.53;70.56;98039.00;108805;1251;99738;-75
2023/01/29 09:00:36;;;;;;;11.00;6.80;;;;;;;-2.50;70.67;98042.11;108877;1251;95556;-75
2023/01/29 09:03:06;;;;;;;8.80;6.40;;;;;;;-2.48;70.84;98040.20;108904;1251;96087;-74
2023/01/29 09:05:36;;;;;;;10.40;6.70;;;;;;;-2.45;70.87;98031.73;108790;1253;103245;-74
2023/01/29 09:08:05;;;;;;;12.10;8.10;;;;;;;-2.38;70.99;98022.38;108871;1251;101250;-75
2023/01/29 09:10:34;;;;;;;11.00;7.40;;;;;;;-2.30;71.17;98016.46;108857;1251;99887;-75
2023/01/29 09:13:02;;;;;;;11.60;7.80;;;;;;;-2.25;71.02;98008.45;108824;1251;95847;-75
2023/01/29 09:15:31;;;;;;;11.80;7.20;;;;;;;-2.21;70.81;98006.95;108877;1251;96337;-74
2023/01/29 09:18:03;;;;;;;10.60;7.00;;;;;;;-2.15;71.00;98008.03;108770;1251;102554;-75
2023/01/29 09:20:32;;;;;;;13.30;7.00;;;;;;;-2.18;70.89;98008.99;108575;1251;101405;-74
2023/01/29 09:23:05;;;;;;;10.50;6.90;;;;;;;-2.26;70.83;98007.70;108834;1251;99637;-75
2023/01/29 09:25:33;;;;;;;12.00;7.10;;;;;;;-2.28;70.88;98000.27;108564;1251;95821;-74
2023/01/29 09:28:02;;;;;;;13.60;7.50;;;;;;;-2.24;70.78;97990.58;108865;1251;96006;-75
2023/01/29 09:30:32;;;;;;;12.30;7.60;;;;;;;-2.22;70.83;97988.52;108866;1251;103548;-74
2023/01/29 09:33:00;;;;;;;10.10;7.30;;;;;;;-2.14;70.89;97986.31;108835;1250;101659;-75
2023/01/29 09:35:29;;;;;;;11.90;6.70;;;;;;;-2.00;70.65;97983.11;108849;1251;99773;-74
2023/01/29 09:37:57;;;;;;;12.60;7.30;;;;;;;-1.93;70.39;97980.61;108882;1251;95522;-74
2023/01/29 09:40:45;;;;;;;12.80;7.50;;;;;;;-1.88;70.17;97980.52;108922;1251;96080;-74
2023/01/29 09:43:39;;;;;;;10.00;6.90;;;;;;;-1.80;70.05;97974.79;108865;1250;102709;-75
2023/01/29 09:46:17;;;;;;;11.80;7.40;;;;;;;-1.78;69.97;97978.75;108854;1251;101324;-74
2023/01/29 09:48:48;;;;;;;14.30;8.20;;;;;;;-1.78;69.97;97985.05;108562;1251;99475;-75
2023/01/29 09:51:28;;;;;;;11.80;7.60;;;;;;;-1.81;69.92;97981.70;108799;1251;95873;-75
2023/01/29 09:54:35;;;;;;;13.40;8.20;;;;;;;-1.76;69.69;97977.34;108810;1251;96025;-74
2023/01/29 09:57:03;;;;;;;13.40;9.00;;;;;;;-1.81;69.59;97971.73;108789;1250;103365;-75
2023/01/29 09:59:32;;;;;;;14.00;8.50;;;;;;;-1.76;69.68;97965.71;108878;1251;109961;-74
2023/01/29 10:02:10;;;;;;;10.80;7.30;;;;;;;-1.69;69.44;97963.52;108829;1251;99238;-75
2023/01/29 10:05:29;;;;;;;11.90;7.40;;;;;;;-1.60;69.19;97960.33;108859;1251;95643;-75
2023/01/29 10:08:06;;;;;;;10.50;6.10;;;;;;;-1.55;68.86;97954.63;108390;1256;96210;-75
2023/01/29 10:10:57;;;;;;;10.60;6.00;;;;;;;-1.50;68.60;97949.64;108462;1256;103594;-75
2023/01/29 10:13:25;;;;;;;10.20;6.80;;;;;;;-1.57;68.30;97944.55;108376;1257;101409;-74
2023/01/29 10:16:08;;;;;;;10.40;6.60;;;;;;;-1.56;68.24;97942.71;108436;1256;99898;-75
2023/01/29 10:19:30;;;;;;;9.10;5.90;;;;;;;-1.50;68.02;97938.70;108423;1256;95652;-74
2023/01/29 10:22:15;;;;;;;12.80;7.90;;;;;;;-1.37;67.82;97925.64;107989;1264;97313;-74
2023/01/29 10:24:54;;;;;;;10.90;7.20;;;;;;;-1.14;67.88;97915.44;107953;1264;103908;-75
2023/01/29 10:27:23;;;;;;;20.90;11.60;;;;;;;-0.90;67.51;97908.52;107959;1264;101456;-74
2023/01/29 10:29:54;;;;;;;28.60;13.70;;;;;;;-0.72;67.38;97896.36;107943;1264;99938;-74
2023/01/29 10:32:27;;;;;;;23.30;11.40;;;;;;;-0.42;67.31;97887.97;107980;1264;96138;-75
2023/01/29 10:35:22;;;;;;;17.20;9.80;;;;;;;0.01;67.12;97881.90;107817;1263;96533;-75
2023/01/29 10:37:53;;;;;;;17.00;9.20;;;;;;;0.52;66.62;97872.77;107991;1264;103394;-75
2023/01/29 10:40:23;;;;;;;16.80;8.30;;;;;;;0.97;66.25;97868.17;107983;1263;101644;-76
2023/01/29 10:43:04;;;;;;;20.80;10.70;;;;;;;1.47;65.84;97860.45;107977;1264;100173;-77
2023/01/29 10:46:02;;;;;;;15.80;8.00;;;;;;;2.05;65.21;97862.31;108237;1259;96029;-76
2023/01/29 10:48:33;;;;;;;10.80;6.10;;;;;;;2.49;64.35;97859.48;107934;1264;95969;-76
2023/01/29 10:51:14;;;;;;;21.00;9.40;;;;;;;2.60;63.48;97857.02;107959;1264;103245;-75
2023/01/29 10:53:57;;;;;;;14.40;8.10;;;;;;;2.55;63.22;97858.56;107959;1264;101242;-75
2023/01/29 10:56:51;;;;;;;9.10;5.70;;;;;;;2.69;63.33;97853.29;107968;1258;99252;-76
2023/01/29 10:59:44;;;;;;;6.20;4.90;;;;;;;2.84;62.67;97851.20;108301;1256;95693;-76
2023/01/29 11:02:19;;;;;;;6.20;4.90;;;;;;;2.72;62.10;97846.27;108348;1257;95644;-77
2023/01/29 11:04:48;;;;;;;6.70;5.20;;;;;;;2.70;62.06;97843.42;108353;1257;103469;-76
2023/01/29 11:07:19;;;;;;;9.60;5.50;;;;;;;2.60;60.81;97843.16;108347;1256;101255;-76
2023/01/29 11:09:58;;;;;;;8.40;5.80;;;;;;;2.13;60.11;97839.73;108217;1256;99697;-76
2023/01/29 11:12:32;;;;;;;7.50;6.00;;;;;;;1.82;60.65;97835.29;108343;1256;95616;-77
2023/01/29 11:15:16;;;;;;;10.00;6.50;;;;;;;1.68;60.67;97826.71;108337;1257;95649;-77
2023/01/29 11:18:14;;;;;;;10.60;6.90;;;;;;;1.60;60.81;97813.06;108378;1257;103057;-76
2023/01/29 11:20:44;;;;;;;10.50;6.80;;;;;;;1.52;60.72;97802.54;108365;1257;100098;-76
2023/01/29 11:23:41;;;;;;;15.00;8.10;;;;;;;1.39;60.76;97792.92;108345;1257;100006;-76
2023/01/29 11:26:14;;;;;;;13.80;8.30;;;;;;;1.21;60.76;97780.48;108092;1259;95691;-76
2023/01/29 11:28:49;;;;;;;;;;;;;;;1.07;61.16;97771.31;108223;1260;95718;-76
2023/01/29 11:31:24;;;;;;;11.90;7.30;;;;;;;0.94;61.18;97758.89;108249;1259;103434;-76
2023/01/29 11:34:03;;;;;;;13.80;8.60;;;;;;;0.81;61.27;97759.96;108178;1259;101673;-76
2023/01/29 11:36:38;;;;;;;19.00;10.40;;;;;;;0.78;61.32;97759.19;108010;1259;101176;-76
2023/01/29 11:39:12;;;;;;;13.70;8.70;;;;;;;0.70;61.17;97754.54;108205;1259;95643;-75
2023/01/29 11:41:47;;;;;;;15.10;9.10;;;;;;;0.59;61.09;97751.40;108198;1259;95920;-77
2023/01/29 11:44:40;;;;;;;24.50;12.90;;;;;;;0.48;61.19;97754.13;108227;1259;103602;-76
2023/01/29 11:47:18;;;;;;;16.50;9.10;;;;;;;0.37;60.94;97744.52;108166;1259;100515;-76
2023/01/29 11:49:52;;;;;;;11.60;6.30;;;;;;;0.44;61.12;97737.31;108193;1262;100105;-76
2023/01/29 11:52:24;;;;;;;9.80;7.40;;;;;;;0.44;60.71;97734.85;108091;1259;95685;-76
2023/01/29 11:54:54;;;;;;;11.00;7.10;;;;;;;0.44;60.67;97729.94;108229;1259;95658;-76
2023/01/29 11:57:34;;;;;;;14.90;7.40;;;;;;;0.33;60.49;97725.04;108032;1259;111192;-76
2023/01/29 12:00:10;;;;;;;11.70;7.80;;;;;;;0.18;60.56;97720.73;108227;1259;101181;-75
2023/01/29 12:02:54;;;;;;;15.20;7.40;;;;;;;0.24;60.96;97720.59;108256;1251;99904;-76
2023/01/29 12:05:24;;;;;;;10.50;6.60;;;;;;;0.33;61.07;97719.16;108544;1252;95774;-76